createdAt,value
2023-03-21T00:03:34.193Z,20.10
2023-03-21T00:07:44.875Z,22.10
2023-03-21T00:11:53.124Z,21.50
2023-03-21T00:16:05.492Z,21.00
2023-03-21T00:20:29.585Z,18.80
2023-03-21T00:24:39.642Z,18.70
2023-03-21T00:28:48.200Z,18.20
2023-03-21T00:33:05.940Z,18.00
2023-03-21T00:37:20.290Z,18.60
2023-03-21T00:41:41.573Z,17.80
2023-03-21T00:46:07.074Z,16.70
2023-03-21T00:50:20.544Z,18.50
2023-03-21T00:54:29.972Z,17.60
2023-03-21T00:58:43.830Z,17.30
2023-03-21T01:03:21.455Z,13.70
2023-03-21T01:07:36.767Z,12.10
2023-03-21T01:11:48.574Z,13.40
2023-03-21T01:15:57.799Z,12.70
2023-03-21T01:20:12.068Z,13.20
2023-03-21T01:24:22.749Z,13.80
2023-03-21T01:28:32.740Z,13.80
2023-03-21T01:32:43.044Z,13.90
2023-03-21T01:36:51.241Z,13.70
2023-03-21T01:41:06.173Z,13.10
2023-03-21T01:45:55.461Z,13.60
2023-03-21T01:50:15.121Z,14.30
2023-03-21T01:54:32.976Z,14.10
2023-03-21T01:58:45.392Z,13.50
2023-03-21T02:03:06.060Z,12.70
2023-03-21T02:07:31.214Z,12.20
2023-03-21T02:11:41.573Z,12.70
2023-03-21T02:15:54.459Z,13.00
2023-03-21T02:20:38.946Z,11.80
2023-03-21T02:25:21.822Z,11.10
2023-03-21T02:29:59.881Z,11.30
2023-03-21T02:34:49.562Z,11.00
2023-03-21T02:39:09.263Z,11.50
2023-03-21T02:43:24.459Z,11.40
2023-03-21T02:47:39.669Z,11.40
2023-03-21T02:51:55.510Z,11.60
2023-03-21T02:56:05.047Z,12.50
2023-03-21T03:00:23.344Z,12.90
2023-03-21T03:04:35.143Z,12.90
2023-03-21T03:09:01.857Z,14.20
2023-03-21T03:13:21.546Z,13.10
2023-03-21T03:17:41.026Z,14.10
2023-03-21T03:22:00.465Z,14.30
2023-03-21T03:26:16.315Z,14.60
2023-03-21T03:30:44.704Z,14.90
2023-03-21T03:34:56.246Z,15.50
2023-03-21T03:39:11.908Z,14.50
2023-03-21T03:43:32.634Z,15.00
2023-03-21T03:47:57.229Z,15.10
2023-03-21T03:52:12.564Z,15.80
2023-03-21T03:56:21.522Z,15.60
2023-03-21T04:00:35.240Z,15.00
2023-03-21T04:04:46.115Z,14.90
2023-03-21T04:08:54.464Z,14.20
2023-03-21T04:13:10.273Z,15.00
2023-03-21T04:17:23.336Z,15.50
2023-03-21T04:21:32.182Z,16.30
2023-03-21T04:25:56.431Z,15.70
2023-03-21T04:30:05.599Z,15.40
2023-03-21T04:34:17.211Z,15.20
2023-03-21T04:38:25.519Z,16.10
2023-03-21T04:42:41.373Z,16.80
2023-03-21T04:46:53.762Z,16.20
2023-03-21T04:51:10.031Z,15.30
2023-03-21T04:55:24.150Z,15.30
2023-03-21T04:59:34.753Z,15.10
2023-03-21T05:03:46.635Z,16.50
2023-03-21T05:07:54.342Z,17.80
2023-03-21T05:12:09.662Z,18.90
2023-03-21T05:16:27.453Z,17.50
2023-03-21T05:20:36.406Z,17.00
2023-03-21T05:24:50.321Z,18.20
2023-03-21T05:28:59.226Z,18.30
2023-03-21T05:33:07.862Z,17.50
2023-03-21T05:37:15.912Z,17.30
2023-03-21T05:41:23.486Z,17.40
2023-03-21T05:45:35.961Z,18.00
2023-03-21T05:49:47.330Z,18.30
2023-03-21T05:54:04.413Z,18.50
2023-03-21T05:58:12.681Z,18.70
2023-03-21T06:02:22.390Z,17.50
2023-03-21T06:06:31.043Z,17.10
2023-03-21T06:10:38.404Z,18.40
2023-03-21T06:14:46.386Z,18.10
2023-03-21T06:18:54.424Z,17.70
2023-03-21T06:23:04.997Z,17.20
2023-03-21T06:27:14.163Z,16.10
2023-03-21T06:31:22.974Z,17.30
2023-03-21T06:35:31.139Z,17.00
2023-03-21T06:39:38.872Z,17.20
2023-03-21T06:43:46.663Z,16.90
2023-03-21T06:47:54.145Z,16.40
2023-03-21T06:52:02.984Z,15.50
2023-03-21T06:56:11.993Z,14.70
2023-03-21T07:00:22.438Z,15.00
2023-03-21T07:04:30.439Z,17.20
2023-03-21T07:08:39.520Z,16.10
2023-03-21T07:12:47.710Z,16.00
2023-03-21T07:16:55.142Z,16.80
2023-03-21T07:21:04.756Z,15.70
2023-03-21T07:25:14.438Z,17.10
2023-03-21T07:29:23.396Z,18.30
2023-03-21T07:33:31.663Z,17.30
2023-03-21T07:38:18.553Z,15.50
2023-03-21T07:42:26.796Z,18.70
2023-03-21T07:46:34.950Z,19.10
2023-03-21T07:50:42.596Z,19.20
2023-03-21T07:54:50.800Z,17.60
2023-03-21T07:58:59.408Z,17.30
2023-03-21T08:03:09.546Z,18.70
2023-03-21T08:07:17.283Z,19.40
2023-03-21T08:11:25.313Z,19.00
2023-03-21T08:15:37.865Z,18.60
2023-03-21T08:19:47.029Z,18.90
2023-03-21T08:23:56.264Z,17.80
2023-03-21T08:28:04.615Z,16.90
2023-03-21T08:32:13.083Z,17.90
2023-03-21T08:36:21.554Z,19.00
2023-03-21T08:40:29.148Z,18.10
2023-03-21T08:44:39.110Z,18.30
2023-03-21T08:48:48.069Z,20.50
2023-03-21T08:52:56.800Z,20.00
2023-03-21T08:57:05.902Z,19.50
2023-03-21T09:01:15.956Z,19.90
2023-03-21T09:05:26.092Z,17.90
2023-03-21T09:09:34.521Z,18.30
2023-03-21T09:13:42.528Z,19.40
2023-03-21T09:17:53.351Z,20.90
2023-03-21T09:22:03.878Z,19.90
2023-03-21T09:26:13.933Z,19.50
2023-03-21T09:30:26.330Z,20.20
2023-03-21T09:34:34.794Z,18.40
2023-03-21T09:38:45.795Z,19.20
2023-03-21T09:43:00.709Z,20.60
2023-03-21T09:47:20.890Z,20.50
2023-03-21T09:51:33.784Z,21.20
2023-03-21T09:55:44.677Z,19.70
2023-03-21T09:59:55.051Z,20.60
2023-03-21T10:04:05.786Z,19.30
2023-03-21T10:08:19.279Z,18.10
2023-03-21T10:12:30.929Z,19.00
2023-03-21T10:16:42.412Z,20.60
2023-03-21T10:20:50.840Z,21.80
2023-03-21T10:24:58.789Z,21.30
2023-03-21T10:29:06.879Z,20.40
2023-03-21T10:33:18.587Z,20.80
2023-03-21T10:37:27.083Z,22.70
2023-03-21T10:41:36.150Z,22.60
2023-03-21T10:45:45.708Z,20.70
2023-03-21T10:50:07.337Z,20.30
2023-03-21T10:54:20.078Z,24.30
2023-03-21T10:58:33.411Z,22.30
2023-03-21T11:02:43.318Z,21.20
2023-03-21T11:06:56.958Z,21.40
2023-03-21T11:11:08.627Z,22.60
2023-03-21T11:15:30.274Z,21.90
2023-03-21T11:19:40.124Z,21.20
2023-03-21T11:23:49.667Z,22.20
2023-03-21T11:27:58.288Z,23.40
2023-03-21T11:32:14.533Z,23.50
2023-03-21T11:36:36.809Z,22.00
2023-03-21T11:40:55.290Z,23.40
2023-03-21T11:45:12.712Z,22.20
2023-03-21T11:49:22.175Z,19.80
2023-03-21T11:53:39.576Z,22.60
2023-03-21T11:57:57.963Z,22.30
2023-03-21T12:02:19.141Z,22.10
2023-03-21T12:06:31.715Z,21.20
2023-03-21T12:10:45.988Z,22.90
2023-03-21T12:15:03.652Z,20.20
2023-03-21T12:19:20.216Z,23.00
2023-03-21T12:23:52.902Z,23.70
2023-03-21T12:28:10.725Z,23.20
2023-03-21T12:32:26.593Z,22.10
2023-03-21T12:37:00.023Z,22.80
2023-03-21T12:41:21.544Z,21.20
2023-03-21T12:45:45.618Z,23.10
2023-03-21T12:49:59.654Z,22.80
2023-03-21T12:54:14.472Z,21.70
2023-03-21T12:58:24.478Z,22.30
2023-03-21T13:02:35.676Z,20.20
2023-03-21T13:06:44.740Z,21.80
2023-03-21T13:10:54.064Z,21.30
2023-03-21T13:15:31.878Z,21.20
2023-03-21T13:19:43.675Z,20.90
2023-03-21T13:24:03.605Z,19.10
2023-03-21T13:28:20.835Z,20.10
2023-03-21T13:32:32.589Z,19.70
2023-03-21T13:36:40.201Z,20.20
2023-03-21T13:40:52.757Z,20.50
2023-03-21T13:45:03.933Z,18.50
2023-03-21T13:49:28.280Z,19.90
2023-03-21T13:53:37.508Z,20.30
2023-03-21T13:57:49.195Z,20.00
2023-03-21T14:02:09.677Z,19.60
2023-03-21T14:06:18.618Z,20.60
2023-03-21T14:10:29.799Z,21.10
2023-03-21T14:14:44.421Z,21.30
2023-03-21T14:18:56.302Z,20.80
2023-03-21T14:23:07.932Z,20.00
2023-03-21T14:27:16.322Z,20.90
2023-03-21T14:31:25.277Z,19.20
2023-03-21T14:35:35.428Z,20.30
2023-03-21T14:39:44.572Z,20.60
2023-03-21T14:44:05.156Z,19.50
2023-03-21T14:48:16.647Z,20.00
2023-03-21T14:52:29.166Z,21.10
2023-03-21T14:56:39.020Z,21.00
2023-03-21T15:00:48.097Z,20.60
2023-03-21T15:04:58.031Z,20.00
2023-03-21T15:09:11.097Z,20.50
2023-03-21T15:13:21.718Z,19.90
2023-03-21T15:17:29.710Z,20.10
2023-03-21T15:21:39.623Z,20.30
2023-03-21T15:25:48.339Z,21.60
2023-03-21T15:29:57.335Z,20.40
2023-03-21T15:34:07.146Z,20.60
2023-03-21T15:38:30.938Z,20.30
2023-03-21T15:42:43.179Z,21.10
2023-03-21T15:46:53.498Z,20.50
2023-03-21T15:51:05.231Z,20.80
2023-03-21T15:55:26.409Z,20.40
2023-03-21T15:59:37.424Z,21.10
2023-03-21T16:03:48.214Z,20.80
2023-03-21T16:07:58.433Z,22.60
2023-03-21T16:12:10.532Z,21.40
2023-03-21T16:16:21.252Z,23.10
2023-03-21T16:20:32.081Z,25.40
2023-03-21T16:24:40.091Z,22.90
2023-03-21T16:28:49.123Z,21.70
2023-03-21T16:32:57.383Z,22.70
2023-03-21T16:37:05.107Z,23.40
2023-03-21T16:41:15.417Z,22.90
2023-03-21T16:45:26.111Z,28.70
2023-03-21T16:49:34.375Z,27.00
2023-03-21T16:53:41.934Z,27.60
2023-03-21T16:57:54.315Z,34.00
2023-03-21T17:02:02.910Z,27.80
2023-03-21T17:06:17.424Z,23.80
2023-03-21T17:10:27.705Z,25.40
2023-03-21T17:14:36.670Z,24.60
2023-03-21T17:18:45.862Z,23.30
2023-03-21T17:22:53.587Z,26.30
2023-03-21T17:27:07.978Z,25.80
2023-03-21T17:31:18.827Z,24.20
2023-03-21T17:35:28.622Z,24.70
2023-03-21T17:39:36.490Z,24.70
2023-03-21T17:43:44.526Z,26.90
2023-03-21T17:47:55.332Z,26.50
2023-03-21T17:52:03.475Z,29.50
2023-03-21T17:56:15.623Z,28.00
2023-03-21T18:00:26.335Z,25.70
2023-03-21T18:04:34.465Z,25.40
2023-03-21T18:08:42.901Z,24.40
2023-03-21T18:12:53.029Z,25.20
2023-03-21T18:17:01.145Z,26.20
2023-03-21T18:21:11.017Z,26.10
2023-03-21T18:25:19.715Z,25.10
2023-03-21T18:34:00.663Z,26.30
2023-03-21T18:38:08.969Z,23.80
2023-03-21T18:42:18.431Z,24.80
2023-03-21T18:46:32.771Z,24.70
2023-03-21T18:50:42.249Z,24.60
2023-03-21T18:54:50.942Z,26.20
2023-03-21T18:59:01.519Z,25.90
2023-03-21T19:03:19.180Z,24.90
2023-03-21T19:07:37.481Z,26.60
2023-03-21T19:11:46.238Z,26.70
2023-03-21T19:15:56.839Z,27.70
2023-03-21T19:20:06.043Z,27.20
2023-03-21T19:24:27.656Z,28.50
2023-03-21T19:28:36.844Z,28.10
2023-03-21T19:32:44.963Z,25.40
2023-03-21T19:36:53.272Z,27.20
2023-03-21T19:41:03.635Z,25.40
2023-03-21T19:45:14.393Z,25.30
2023-03-21T19:49:34.577Z,25.40
2023-03-21T19:53:51.222Z,24.80
2023-03-21T19:57:59.534Z,23.10
2023-03-21T20:02:33.257Z,22.00
2023-03-21T20:06:35.724Z,20.60
2023-03-21T20:10:44.398Z,21.20
2023-03-21T20:15:01.033Z,20.40
2023-03-21T20:19:20.355Z,18.80
2023-03-21T20:23:28.727Z,18.20
2023-03-21T20:27:39.288Z,17.60
2023-03-21T20:31:47.872Z,18.00
2023-03-21T20:40:30.445Z,16.10
2023-03-21T20:44:56.720Z,16.60
2023-03-21T20:49:06.930Z,15.40
2023-03-21T20:53:15.756Z,15.70
2023-03-21T20:57:25.796Z,15.30
2023-03-21T21:01:33.966Z,16.10
2023-03-21T21:05:42.778Z,16.30
2023-03-21T21:09:51.955Z,16.70
2023-03-21T21:14:01.283Z,15.50
2023-03-21T21:18:13.215Z,15.60
2023-03-21T21:22:21.842Z,14.60
2023-03-21T21:26:29.954Z,15.20
2023-03-21T21:30:41.808Z,14.20
2023-03-21T21:34:50.390Z,15.00
2023-03-21T21:38:58.208Z,15.30
2023-03-21T21:43:06.320Z,13.80
2023-03-21T21:47:13.921Z,14.30
2023-03-21T21:51:26.465Z,14.50
2023-03-21T21:55:35.018Z,15.50
2023-03-21T21:59:43.218Z,14.70
2023-03-21T22:03:51.869Z,15.00
2023-03-21T22:07:59.688Z,14.20
2023-03-21T22:12:08.280Z,15.20
2023-03-21T22:16:16.377Z,15.00
2023-03-21T22:20:24.585Z,16.00
2023-03-21T22:24:33.014Z,14.70
2023-03-21T22:28:42.386Z,14.60
2023-03-21T22:33:08.575Z,15.80
2023-03-21T22:37:18.185Z,15.80
2023-03-21T22:41:26.056Z,15.40
2023-03-21T22:45:35.092Z,16.20
2023-03-21T22:49:45.387Z,15.10
2023-03-21T22:53:53.667Z,15.40
2023-03-21T22:58:01.760Z,15.90
2023-03-21T23:02:10.638Z,16.60
2023-03-21T23:06:19.991Z,16.20
2023-03-21T23:10:27.961Z,16.00
2023-03-21T23:14:36.134Z,15.80
2023-03-21T23:18:44.861Z,17.10
2023-03-21T23:22:52.579Z,17.40
2023-03-21T23:27:00.484Z,16.00
2023-03-21T23:31:17.595Z,16.70
2023-03-21T23:35:24.891Z,16.50
2023-03-21T23:39:33.764Z,17.20
2023-03-21T23:43:42.933Z,16.60
2023-03-21T23:47:51.065Z,19.00
2023-03-21T23:52:00.559Z,18.00
2023-03-21T23:56:15.373Z,16.90
